createdAt,value
2023-04-25T00:00:16.668Z,6.10
2023-04-25T00:02:43.771Z,6.05
2023-04-25T00:05:11.440Z,5.81
2023-04-25T00:07:38.273Z,5.68
2023-04-25T00:10:06.083Z,5.75
2023-04-25T00:12:34.584Z,5.63
2023-04-25T00:15:01.519Z,5.39
2023-04-25T00:17:28.477Z,5.77
2023-04-25T00:19:55.650Z,5.68
2023-04-25T00:22:22.726Z,5.54
2023-04-25T00:24:50.034Z,5.83
2023-04-25T00:27:16.842Z,5.66
2023-04-25T00:29:43.669Z,5.84
2023-04-25T00:32:11.002Z,5.86
2023-04-25T00:34:37.791Z,5.90
2023-04-25T00:37:04.673Z,5.91
2023-04-25T00:39:31.678Z,5.85
2023-04-25T00:41:59.218Z,5.42
2023-04-25T00:44:27.921Z,5.57
2023-04-25T00:46:55.530Z,5.61
2023-04-25T00:49:22.684Z,5.73
2023-04-25T00:51:49.776Z,5.35
2023-04-25T00:54:17.491Z,5.44
2023-04-25T00:56:48.175Z,5.53
2023-04-25T00:59:17.000Z,5.41
2023-04-25T01:01:45.319Z,5.65
2023-04-25T01:04:12.637Z,4.76
2023-04-25T01:06:40.022Z,5.20
2023-04-25T01:09:07.135Z,5.24
2023-04-25T01:11:33.949Z,5.25
2023-04-25T01:14:01.692Z,4.86
2023-04-25T01:16:29.014Z,5.18
2023-04-25T01:18:57.164Z,5.13
2023-04-25T01:21:24.420Z,4.97
2023-04-25T01:23:51.727Z,5.22
2023-04-25T01:26:18.851Z,5.27
2023-04-25T01:28:46.401Z,5.48
2023-04-25T01:31:14.349Z,5.50
2023-04-25T01:33:41.435Z,5.53
2023-04-25T01:36:08.605Z,5.53
2023-04-25T01:38:36.619Z,5.57
2023-04-25T01:41:04.184Z,5.06
2023-04-25T01:43:31.106Z,4.66
2023-04-25T01:45:58.590Z,5.22
2023-04-25T01:48:26.092Z,4.63
2023-04-25T01:50:53.412Z,4.88
2023-04-25T01:53:20.293Z,5.16
2023-04-25T01:55:49.751Z,4.65
2023-04-25T01:58:20.981Z,4.82
2023-04-25T02:01:06.501Z,5.04
2023-04-25T02:03:53.592Z,5.49
2023-04-25T02:06:29.346Z,5.03
2023-04-25T02:08:58.079Z,4.95
2023-04-25T02:11:24.952Z,4.72
2023-04-25T02:14:14.608Z,4.64
2023-04-25T02:16:54.025Z,4.25
2023-04-25T02:19:20.830Z,4.90
2023-04-25T02:21:47.807Z,4.82
2023-04-25T02:24:14.746Z,4.86
2023-04-25T02:26:41.527Z,4.77
2023-04-25T02:29:10.546Z,4.92
2023-04-25T02:31:37.509Z,4.16
2023-04-25T02:34:04.333Z,4.14
2023-04-25T02:36:33.304Z,4.64
2023-04-25T02:39:00.138Z,4.88
2023-04-25T02:41:27.798Z,4.47
2023-04-25T02:43:56.268Z,4.59
2023-04-25T02:46:32.200Z,4.60
2023-04-25T02:49:05.179Z,4.85
2023-04-25T02:51:32.196Z,4.88
2023-04-25T02:53:59.366Z,5.02
2023-04-25T02:56:27.393Z,4.60
2023-04-25T02:58:54.781Z,5.04
2023-04-25T03:01:22.137Z,4.91
2023-04-25T03:03:49.532Z,5.04
2023-04-25T03:06:17.291Z,5.02
2023-04-25T03:08:44.525Z,4.89
2023-04-25T03:11:11.909Z,5.13
2023-04-25T03:13:38.946Z,5.29
2023-04-25T03:16:06.750Z,5.42
2023-04-25T03:18:33.706Z,5.35
2023-04-25T03:21:00.851Z,5.23
2023-04-25T03:23:27.880Z,5.23
2023-04-25T03:25:55.475Z,5.28
2023-04-25T03:28:23.522Z,5.26
2023-04-25T03:30:51.485Z,5.25
2023-04-25T03:33:18.370Z,5.18
2023-04-25T03:35:45.435Z,5.10
2023-04-25T03:38:12.934Z,5.20
2023-04-25T03:40:41.231Z,5.22
2023-04-25T03:43:13.899Z,5.22
2023-04-25T03:45:48.114Z,5.19
2023-04-25T03:48:20.630Z,5.18
2023-04-25T03:50:48.533Z,5.14
2023-04-25T03:53:15.434Z,4.96
2023-04-25T03:56:10.581Z,5.11
2023-04-25T03:58:38.885Z,4.66
2023-04-25T04:01:09.027Z,5.00
2023-04-25T04:03:38.991Z,5.25
2023-04-25T04:06:08.056Z,5.10
2023-04-25T04:08:39.372Z,5.02
2023-04-25T04:11:06.426Z,5.22
2023-04-25T04:13:34.129Z,5.17
2023-04-25T04:16:02.817Z,4.77
2023-04-25T04:18:29.865Z,5.00
2023-04-25T04:20:59.325Z,4.75
2023-04-25T04:23:29.289Z,4.23
2023-04-25T04:25:58.283Z,4.68
2023-04-25T04:28:46.992Z,4.90
2023-04-25T04:31:31.316Z,4.87
2023-04-25T04:33:59.649Z,4.84
2023-04-25T04:36:27.569Z,4.87
2023-04-25T04:38:55.145Z,4.08
2023-04-25T04:41:33.459Z,4.35
2023-04-25T04:44:23.879Z,4.70
2023-04-25T04:47:08.994Z,4.41
2023-04-25T04:50:01.574Z,4.47
2023-04-25T04:52:49.934Z,4.82
2023-04-25T04:55:39.087Z,4.30
2023-04-25T04:58:13.087Z,4.25
2023-04-25T05:00:51.520Z,3.55
2023-04-25T05:03:41.628Z,3.65
2023-04-25T05:06:24.289Z,4.37
2023-04-25T05:09:16.243Z,3.81
2023-04-25T05:12:18.249Z,3.15
2023-04-25T05:15:03.586Z,3.46
2023-04-25T05:17:30.708Z,3.12
2023-04-25T05:20:10.495Z,3.67
2023-04-25T05:22:56.304Z,3.63
2023-04-25T05:25:37.361Z,3.60
2023-04-25T05:28:14.534Z,3.60
2023-04-25T05:30:59.196Z,4.05
2023-04-25T05:33:31.837Z,4.83
2023-04-25T05:36:00.023Z,4.75
2023-04-25T05:38:27.518Z,5.15
2023-04-25T05:41:29.069Z,5.48
2023-04-25T05:44:00.748Z,4.82
2023-04-25T05:46:42.426Z,4.70
2023-04-25T05:49:26.462Z,5.16
2023-04-25T05:52:01.572Z,5.66
2023-04-25T05:54:45.864Z,6.20
2023-04-25T05:57:26.630Z,6.35
2023-04-25T05:59:55.840Z,6.85
2023-04-25T06:02:28.541Z,6.15
2023-04-25T06:04:58.722Z,5.93
2023-04-25T06:07:26.200Z,5.66
2023-04-25T06:09:53.065Z,4.91
2023-04-25T06:12:20.252Z,5.41
2023-04-25T06:14:49.903Z,6.29
2023-04-25T06:17:16.731Z,6.14
2023-04-25T06:19:43.689Z,4.71
2023-04-25T06:22:11.296Z,5.32
2023-04-25T06:24:40.830Z,4.97
2023-04-25T06:27:08.147Z,6.69
2023-04-25T06:29:35.265Z,4.84
2023-04-25T06:32:07.862Z,5.06
2023-04-25T06:34:40.143Z,5.56
2023-04-25T06:37:14.919Z,6.05
2023-04-25T06:39:51.537Z,5.76
2023-04-25T06:42:18.833Z,6.34
2023-04-25T06:44:52.512Z,6.20
2023-04-25T06:47:20.760Z,6.15
2023-04-25T06:49:49.046Z,5.32
2023-04-25T06:52:15.940Z,5.81
2023-04-25T06:54:42.848Z,5.69
2023-04-25T06:57:27.901Z,6.56
2023-04-25T06:59:57.358Z,6.19
2023-04-25T07:02:24.592Z,5.48
2023-04-25T07:04:55.390Z,6.22
2023-04-25T07:07:22.673Z,6.46
2023-04-25T07:09:55.977Z,7.33
2023-04-25T07:12:23.100Z,6.89
2023-04-25T07:14:50.046Z,6.60
2023-04-25T07:17:17.007Z,7.14
2023-04-25T07:19:44.666Z,7.12
2023-04-25T07:22:11.807Z,6.56
2023-04-25T07:24:41.365Z,6.29
2023-04-25T07:27:10.529Z,6.50
2023-04-25T07:29:48.984Z,7.34
2023-04-25T07:32:16.273Z,7.06
2023-04-25T07:34:46.628Z,6.57
2023-04-25T07:37:16.159Z,7.35
2023-04-25T07:39:58.342Z,8.34
2023-04-25T07:42:25.349Z,8.88
2023-04-25T07:44:52.869Z,9.53
2023-04-25T07:47:22.576Z,8.41
2023-04-25T07:49:49.580Z,6.98
2023-04-25T07:52:17.649Z,8.15
2023-04-25T07:54:50.277Z,8.21
2023-04-25T07:57:22.712Z,7.90
2023-04-25T07:59:50.718Z,6.62
2023-04-25T08:02:20.556Z,6.84
2023-04-25T08:04:47.846Z,7.90
2023-04-25T08:07:17.625Z,7.65
2023-04-25T08:09:55.514Z,7.37
2023-04-25T08:12:29.432Z,6.55
2023-04-25T08:14:59.629Z,6.75
2023-04-25T08:17:31.745Z,6.98
2023-04-25T08:19:59.231Z,7.80
2023-04-25T08:22:31.858Z,8.66
2023-04-25T08:25:16.009Z,9.03
2023-04-25T08:27:43.969Z,8.88
2023-04-25T08:30:11.720Z,7.86
2023-04-25T08:32:40.354Z,8.21
2023-04-25T08:35:21.666Z,8.49
2023-04-25T08:37:52.031Z,7.39
2023-04-25T08:40:27.225Z,9.24
2023-04-25T08:43:19.052Z,7.71
2023-04-25T08:45:46.932Z,7.37
2023-04-25T08:48:28.850Z,7.75
2023-04-25T08:50:58.026Z,7.37
2023-04-25T08:53:33.897Z,8.51
2023-04-25T08:56:10.448Z,8.45
2023-04-25T08:58:39.681Z,7.25
2023-04-25T09:01:07.328Z,7.97
2023-04-25T09:03:42.349Z,8.39
2023-04-25T09:06:12.077Z,7.97
2023-04-25T09:08:41.855Z,8.35
2023-04-25T09:11:11.464Z,8.36
2023-04-25T09:13:38.685Z,7.29
2023-04-25T09:16:16.150Z,7.53
2023-04-25T09:19:07.244Z,8.16
2023-04-25T09:21:37.776Z,7.26
2023-04-25T09:24:07.633Z,6.76
2023-04-25T09:26:35.581Z,8.33
2023-04-25T09:29:10.710Z,7.93
2023-04-25T09:31:41.395Z,8.44
2023-04-25T09:34:16.650Z,8.64
2023-04-25T09:36:48.019Z,8.77
2023-04-25T09:39:39.356Z,9.77
2023-04-25T09:42:13.280Z,9.11
2023-04-25T09:44:47.028Z,8.42
2023-04-25T09:47:18.989Z,7.94
2023-04-25T09:49:49.246Z,8.39
2023-04-25T09:52:19.313Z,7.29
2023-04-25T09:54:56.346Z,6.97
2023-04-25T09:57:31.419Z,7.87
2023-04-25T10:00:02.206Z,8.39
2023-04-25T10:02:44.209Z,7.53
2023-04-25T10:05:18.888Z,7.82
2023-04-25T10:07:46.086Z,7.65
2023-04-25T10:10:17.649Z,7.50
2023-04-25T10:12:45.739Z,7.63
2023-04-25T10:15:14.620Z,7.15
2023-04-25T10:17:41.796Z,7.76
2023-04-25T10:20:12.062Z,7.31
2023-04-25T10:22:42.783Z,7.89
2023-04-25T10:25:10.612Z,7.63
2023-04-25T10:27:38.262Z,7.71
2023-04-25T10:30:12.161Z,7.63
2023-04-25T10:32:39.205Z,7.76
2023-04-25T10:35:14.356Z,8.37
2023-04-25T10:38:03.948Z,7.81
2023-04-25T10:40:31.434Z,7.56
2023-04-25T10:43:34.599Z,7.96
2023-04-25T10:46:01.801Z,8.18
2023-04-25T10:48:32.958Z,7.43
2023-04-25T10:51:10.487Z,7.49
2023-04-25T10:53:37.976Z,8.06
2023-04-25T10:57:07.118Z,7.95
2023-04-25T10:59:34.412Z,7.84
2023-04-25T11:02:13.399Z,7.50
2023-04-25T11:04:42.647Z,7.11
2023-04-25T11:07:38.848Z,7.51
2023-04-25T11:10:07.626Z,7.80
2023-04-25T11:12:34.767Z,8.13
2023-04-25T11:15:08.620Z,7.81
2023-04-25T11:17:36.398Z,7.47
2023-04-25T11:20:08.400Z,7.04
2023-04-25T11:22:35.923Z,6.51
2023-04-25T11:25:07.574Z,6.43
2023-04-25T11:27:50.655Z,6.58
2023-04-25T11:30:18.119Z,6.46
2023-04-25T11:32:45.065Z,6.97
2023-04-25T11:35:12.465Z,7.26
2023-04-25T11:37:43.627Z,7.34
2023-04-25T11:40:12.651Z,6.94
2023-04-25T11:42:44.316Z,6.75
2023-04-25T11:45:12.045Z,7.20
2023-04-25T11:47:38.971Z,7.19
2023-04-25T11:50:08.716Z,7.39
2023-04-25T11:52:46.162Z,7.96
2023-04-25T11:55:21.650Z,7.78
2023-04-25T11:57:51.269Z,8.32
2023-04-25T12:00:21.130Z,7.86
2023-04-25T12:02:52.926Z,6.80
2023-04-25T12:07:53.585Z,7.26
2023-04-25T12:10:20.839Z,7.02
2023-04-25T12:12:49.527Z,7.42
2023-04-25T12:15:25.605Z,7.76
2023-04-25T12:17:55.066Z,8.15
2023-04-25T12:20:26.149Z,8.14
2023-04-25T12:22:53.999Z,7.92
2023-04-25T12:25:44.497Z,7.74
2023-04-25T12:28:17.094Z,8.37
2023-04-25T12:30:58.769Z,8.49
2023-04-25T12:33:27.940Z,7.80
2023-04-25T12:35:55.882Z,7.75
2023-04-25T12:38:35.020Z,7.42
2023-04-25T12:41:02.145Z,7.80
2023-04-25T12:43:29.114Z,8.11
2023-04-25T12:45:56.989Z,7.52
2023-04-25T12:48:24.441Z,7.27
2023-04-25T12:51:16.926Z,7.65
2023-04-25T12:53:43.725Z,7.65
2023-04-25T12:56:10.676Z,7.72
2023-04-25T12:58:37.712Z,7.66
2023-04-25T13:01:04.894Z,7.48
2023-04-25T13:03:31.997Z,7.81
2023-04-25T13:05:58.965Z,8.27
2023-04-25T13:08:26.076Z,8.32
2023-04-25T13:10:56.225Z,8.23
2023-04-25T13:13:23.629Z,7.99
2023-04-25T13:15:50.748Z,7.70
2023-04-25T13:18:17.771Z,8.00
2023-04-25T13:20:44.654Z,8.15
2023-04-25T13:23:11.558Z,8.74
2023-04-25T13:25:38.418Z,8.68
2023-04-25T13:28:05.793Z,8.72
2023-04-25T13:30:32.610Z,8.93
2023-04-25T13:33:04.410Z,7.34
2023-04-25T13:35:32.220Z,7.08
2023-04-25T13:37:58.995Z,7.79
2023-04-25T13:40:26.144Z,8.55
2023-04-25T13:43:42.650Z,9.28
2023-04-25T13:46:20.639Z,8.35
2023-04-25T13:49:03.026Z,8.45
2023-04-25T13:51:37.059Z,8.12
2023-04-25T13:54:04.164Z,8.28
2023-04-25T13:56:31.456Z,7.94
2023-04-25T13:58:58.562Z,7.53
2023-04-25T14:01:25.432Z,8.03
2023-04-25T14:03:52.465Z,7.42
2023-04-25T14:06:23.812Z,7.15
2023-04-25T14:08:51.758Z,7.67
2023-04-25T14:11:19.412Z,6.95
2023-04-25T14:13:46.992Z,6.57
2023-04-25T14:16:13.873Z,7.54
2023-04-25T14:18:41.001Z,6.92
2023-04-25T14:21:08.073Z,7.01
2023-04-25T14:23:34.768Z,7.37
2023-04-25T14:26:01.712Z,8.25
2023-04-25T14:28:28.461Z,7.45
2023-04-25T14:30:55.354Z,7.21
2023-04-25T14:33:22.351Z,7.42
2023-04-25T14:35:49.251Z,7.20
2023-04-25T14:38:16.212Z,7.30
2023-04-25T14:40:43.833Z,7.28
2023-04-25T14:43:10.646Z,7.92
2023-04-25T14:45:37.389Z,7.74
2023-04-25T14:48:04.543Z,7.50
2023-04-25T14:50:31.840Z,7.29
2023-04-25T14:53:02.170Z,7.02
2023-04-25T14:55:29.344Z,7.67
2023-04-25T14:57:57.565Z,7.37
2023-04-25T15:00:26.378Z,7.01
2023-04-25T15:03:04.391Z,6.76
2023-04-25T15:05:31.846Z,7.27
2023-04-25T15:07:59.454Z,7.67
2023-04-25T15:10:26.539Z,8.15
2023-04-25T15:12:54.646Z,8.34
2023-04-25T15:15:26.620Z,7.99
2023-04-25T15:17:59.115Z,7.98
2023-04-25T15:20:26.900Z,7.86
2023-04-25T15:22:53.853Z,7.43
2023-04-25T15:25:20.576Z,7.97
2023-04-25T15:27:49.492Z,8.11
2023-04-25T15:30:17.800Z,7.63
2023-04-25T15:32:46.081Z,7.65
2023-04-25T15:35:13.338Z,7.56
2023-04-25T15:37:41.519Z,7.38
2023-04-25T15:40:15.050Z,7.83
2023-04-25T15:42:44.438Z,7.85
2023-04-25T15:45:12.288Z,7.81
2023-04-25T15:47:39.267Z,7.87
2023-04-25T15:50:08.634Z,7.97
2023-04-25T15:52:36.793Z,8.10
2023-04-25T15:55:08.901Z,7.53
2023-04-25T15:57:51.544Z,7.86
2023-04-25T16:00:50.302Z,8.03
2023-04-25T16:03:17.258Z,7.23
2023-04-25T16:05:44.156Z,7.25
2023-04-25T16:08:10.886Z,7.02
2023-04-25T16:10:38.509Z,7.86
2023-04-25T16:13:06.489Z,7.64
2023-04-25T16:15:35.321Z,7.68
2023-04-25T16:18:03.189Z,7.59
2023-04-25T16:20:31.404Z,7.47
2023-04-25T16:22:58.802Z,7.86
2023-04-25T16:25:25.542Z,7.33
2023-04-25T16:27:52.596Z,7.47
2023-04-25T16:30:19.467Z,7.19
2023-04-25T16:32:46.241Z,7.16
2023-04-25T16:35:12.943Z,6.73
2023-04-25T16:37:39.717Z,7.17
2023-04-25T16:40:10.088Z,6.87
2023-04-25T16:42:37.067Z,6.23
2023-04-25T16:45:05.283Z,6.78
2023-04-25T16:47:32.805Z,6.57
2023-04-25T16:50:01.638Z,6.92
2023-04-25T16:52:28.490Z,6.94
2023-04-25T16:54:55.258Z,7.36
2023-04-25T16:57:22.107Z,7.40
2023-04-25T16:59:48.760Z,7.38
2023-04-25T17:02:16.053Z,7.09
2023-04-25T17:04:42.947Z,6.95
2023-04-25T17:07:09.753Z,7.17
2023-04-25T17:09:36.808Z,6.89
2023-04-25T17:12:04.476Z,6.54
2023-04-25T17:14:33.217Z,6.48
2023-04-25T17:17:00.309Z,7.14
2023-04-25T17:19:28.270Z,7.23
2023-04-25T17:21:55.953Z,6.92
2023-04-25T17:24:22.678Z,7.12
2023-04-25T17:26:49.496Z,6.97
2023-04-25T17:29:16.346Z,6.55
2023-04-25T17:31:44.322Z,6.85
2023-04-25T17:34:12.303Z,6.48
2023-04-25T17:36:39.018Z,6.61
2023-04-25T17:39:07.454Z,6.75
2023-04-25T17:41:34.278Z,6.62
2023-04-25T17:44:01.411Z,6.58
2023-04-25T17:46:29.578Z,6.35
2023-04-25T17:48:59.346Z,6.63
2023-04-25T17:51:26.695Z,6.82
2023-04-25T17:53:53.465Z,6.20
2023-04-25T17:56:26.962Z,6.49
2023-04-25T17:58:54.525Z,6.73
2023-04-25T18:01:21.766Z,6.47
2023-04-25T18:03:50.316Z,6.59
2023-04-25T18:06:18.141Z,6.43
2023-04-25T18:08:45.418Z,6.41
2023-04-25T18:11:12.424Z,6.40
2023-04-25T18:13:39.831Z,5.89
2023-04-25T18:16:07.643Z,5.71
2023-04-25T18:18:36.358Z,5.44
2023-04-25T18:21:05.759Z,5.80
2023-04-25T18:23:34.297Z,5.73
2023-04-25T18:26:02.895Z,5.38
2023-04-25T18:28:29.796Z,5.57
2023-04-25T18:30:57.133Z,5.49
2023-04-25T18:33:24.068Z,5.07
2023-04-25T18:35:58.205Z,5.40
2023-04-25T18:42:56.038Z,5.38
2023-04-25T18:45:22.816Z,5.15
2023-04-25T18:47:49.651Z,5.26
2023-04-25T18:50:20.290Z,5.25
2023-04-25T18:52:47.101Z,5.53
2023-04-25T18:55:15.013Z,5.58
2023-04-25T18:57:42.218Z,5.19
2023-04-25T19:00:09.573Z,5.27
2023-04-25T19:02:39.425Z,5.05
2023-04-25T19:05:06.990Z,4.75
2023-04-25T19:07:33.875Z,4.23
2023-04-25T19:10:00.681Z,3.96
2023-04-25T19:12:27.383Z,3.85
2023-04-25T19:14:54.162Z,3.34
2023-04-25T19:17:20.915Z,3.24
2023-04-25T19:19:47.837Z,3.54
2023-04-25T19:22:14.789Z,3.12
2023-04-25T19:24:41.591Z,3.39
2023-04-25T19:27:08.610Z,3.44
2023-04-25T19:29:36.482Z,3.58
2023-04-25T19:32:03.559Z,3.43
2023-04-25T19:34:30.466Z,3.48
2023-04-25T19:36:57.618Z,2.92
2023-04-25T19:39:24.364Z,3.03
2023-04-25T19:41:51.249Z,3.19
2023-04-25T19:44:18.039Z,2.74
2023-04-25T19:46:46.889Z,2.73
2023-04-25T19:49:13.850Z,2.71
2023-04-25T19:51:42.133Z,2.78
2023-04-25T19:54:08.946Z,2.31
2023-04-25T19:56:35.860Z,2.10
2023-04-25T19:59:02.947Z,2.12
2023-04-25T20:01:30.472Z,1.96
2023-04-25T20:03:57.449Z,2.47
2023-04-25T20:06:24.314Z,2.72
2023-04-25T20:08:53.447Z,3.01
2023-04-25T20:11:20.338Z,3.19
2023-04-25T20:13:47.512Z,3.25
2023-04-25T20:16:19.892Z,3.40
2023-04-25T20:18:50.543Z,3.54
2023-04-25T20:21:17.715Z,3.01
2023-04-25T20:23:44.859Z,3.07
2023-04-25T20:26:15.087Z,3.37
2023-04-25T20:28:42.000Z,3.03
2023-04-25T20:31:10.799Z,3.29
2023-04-25T20:33:38.828Z,2.84
2023-04-25T20:36:05.847Z,3.00
2023-04-25T20:38:32.729Z,2.08
2023-04-25T20:40:59.665Z,2.75
2023-04-25T20:43:27.057Z,2.87
2023-04-25T20:45:55.127Z,2.93
2023-04-25T20:48:24.352Z,2.72
2023-04-25T20:50:51.551Z,2.44
2023-04-25T20:53:18.509Z,2.44
2023-04-25T20:55:46.561Z,2.02
2023-04-25T20:58:13.289Z,2.15
2023-04-25T21:00:40.003Z,1.68
2023-04-25T21:03:07.871Z,1.24
2023-04-25T21:05:34.958Z,1.51
2023-04-25T21:08:01.740Z,1.67
2023-04-25T21:10:28.626Z,1.80
2023-04-25T21:12:56.665Z,1.80
2023-04-25T21:15:24.676Z,1.56
2023-04-25T21:17:52.941Z,1.82
2023-04-25T21:20:22.069Z,1.61
2023-04-25T21:22:53.454Z,1.85
2023-04-25T21:25:25.571Z,1.89
2023-04-25T21:27:53.445Z,1.71
2023-04-25T21:30:23.733Z,1.63
2023-04-25T21:32:52.040Z,1.28
2023-04-25T21:35:20.515Z,1.55
2023-04-25T21:37:47.419Z,1.27
2023-04-25T21:40:14.727Z,1.54
2023-04-25T21:42:42.566Z,1.34
2023-04-25T21:45:10.239Z,1.51
2023-04-25T21:47:37.341Z,1.64
2023-04-25T21:50:04.736Z,1.72
2023-04-25T21:52:32.211Z,1.73
2023-04-25T21:54:59.094Z,1.65
2023-04-25T21:57:26.541Z,1.78
2023-04-25T21:59:53.614Z,1.87
2023-04-25T22:02:20.513Z,1.61
2023-04-25T22:04:47.834Z,1.39
2023-04-25T22:07:15.292Z,1.33
2023-04-25T22:09:53.886Z,1.51
2023-04-25T22:12:22.727Z,1.55
2023-04-25T22:14:50.256Z,1.34
2023-04-25T22:17:17.804Z,1.37
2023-04-25T22:19:45.370Z,1.42
2023-04-25T22:22:12.336Z,1.45
2023-04-25T22:24:39.357Z,1.47
2023-04-25T22:27:06.802Z,1.03
2023-04-25T22:29:34.348Z,0.90
2023-04-25T22:32:01.780Z,0.79
2023-04-25T22:34:28.956Z,0.81
2023-04-25T22:36:55.721Z,0.40
2023-04-25T22:39:23.239Z,0.82
2023-04-25T22:41:49.904Z,0.96
2023-04-25T22:44:16.601Z,0.41
2023-04-25T22:46:43.506Z,0.41
2023-04-25T22:49:10.597Z,0.52
2023-04-25T22:51:37.844Z,0.60
2023-04-25T22:54:05.521Z,0.73
2023-04-25T22:56:32.855Z,0.87
2023-04-25T22:58:59.667Z,0.82
2023-04-25T23:01:28.094Z,0.99
2023-04-25T23:03:55.243Z,1.07
2023-04-25T23:06:22.959Z,1.06
2023-04-25T23:08:50.420Z,1.04
2023-04-25T23:11:17.191Z,1.13
2023-04-25T23:13:44.034Z,1.11
2023-04-25T23:16:11.155Z,1.25
2023-04-25T23:18:39.564Z,1.30
2023-04-25T23:21:11.411Z,1.31
2023-04-25T23:23:38.807Z,1.42
2023-04-25T23:26:09.379Z,1.41
2023-04-25T23:28:39.854Z,1.33
2023-04-25T23:31:09.934Z,1.21
2023-04-25T23:33:36.760Z,1.22
2023-04-25T23:36:03.853Z,1.07
2023-04-25T23:38:31.001Z,1.08
2023-04-25T23:40:57.920Z,1.04
2023-04-25T23:43:24.771Z,0.79
2023-04-25T23:45:51.567Z,0.68
2023-04-25T23:48:18.257Z,0.63
2023-04-25T23:50:44.912Z,0.66
2023-04-25T23:53:11.855Z,0.56
2023-04-25T23:55:38.600Z,0.20
2023-04-25T23:58:05.392Z,0.03
